Tabiona
, Tabiona
Last Weather Update:03/29/2012 12:00:00 PM
Date
ETo
ETc
Rain
Irrigation
Req
Temp
Max
Temp
Min
Temp
Avg
Avg RH
Avg Wind
Avg Solar
inches
inches
incehs
inches
F
F
F
%
%
watts/m2
02/01/2012 0.06" 0.00" 0.00" 0.00" 39.9° 14.6° 26.5° 58.3% 5.3 MPH 166.1w/m2
02/02/2012 0.06" 0.00" 0.03" -0.02" 40.6° 13.1° 26.2° 80.6% 4.5 MPH 178.7w/m2
02/03/2012 0.06" 0.00" 0.00" 0.00" 36.5° 12.4° 22.0° 66.3% 7.2 MPH 194.5w/m2
02/04/2012 0.07" 0.00" 0.00" 0.00" 35.0° 9.6° 19.9° 63.8% 7.4 MPH 208.5w/m2
02/05/2012 0.07" 0.00" 0.00" 0.00" 37.7° 10.5° 21.4° 61.7% 7.4 MPH 207.8w/m2
02/06/2012 0.08" 0.00" 0.00" 0.00" 40.7° 11.4° 23.6° 61.4% 6.3 MPH 208.3w/m2
02/07/2012 0.07" 0.00" 0.00" 0.00" 36.5° 8.9° 20.2° 63.8% 6.6 MPH 225.9w/m2
02/08/2012 0.04" 0.00" 0.00" 0.00" 38.9° 17.3° 28.1° 62.4% 6.0 MPH 111.1w/m2
02/09/2012 0.09" 0.00" 0.00" 0.00" 41.8° 24.6° 34.6° 55.2% 12.9 MPH 221.0w/m2
02/10/2012 0.06" 0.00" 0.00" 0.00" 46.9° 20.7° 31.3° 71.0% 4.4 MPH 154.3w/m2
02/11/2012 0.06" 0.00" 0.00" 0.00" 44.1° 20.1° 29.6° 69.1% 5.3 MPH 148.2w/m2
02/12/2012 0.04" 0.00" 0.24" -0.19" 35.5° 26.5° 30.9° 85.0% 7.2 MPH 140.5w/m2
02/13/2012 0.07" 0.00" 0.00" 0.00" 41.0° 19.7° 29.8° 61.2% 6.3 MPH 185.1w/m2
02/14/2012 0.08" 0.00" 0.01" -0.01" 42.2° 17.5° 27.9° 67.3% 8.0 MPH 216.2w/m2
02/15/2012 0.06" 0.00" 0.00" 0.00" 40.7° 15.6° 25.4° 71.4% 4.7 MPH 170.1w/m2
02/16/2012 0.10" 0.00" 0.00" 0.00" 42.2° 12.7° 25.7° 59.6% 7.5 MPH 268.5w/m2
02/17/2012 0.09" 0.00" 0.00" 0.00" 37.9° 8.9° 24.1° 53.6% 7.3 MPH 244.4w/m2
02/18/2012 0.10" 0.00" 0.00" 0.00" 45.0° 11.9° 27.1° 55.5% 5.3 MPH 270.0w/m2
02/19/2012 0.05" 0.00" 0.00" 0.00" 31.2° 18.6° 24.7° 66.3% 13.2 MPH 155.8w/m2
02/20/2012 0.09" 0.00" 0.00" 0.00" 37.1° 15.5° 23.9° 51.7% 9.8 MPH 260.2w/m2
02/21/2012 0.09" 0.00" 0.00" 0.00" 39.7° 18.9° 32.8° 63.3% 15.4 MPH 254.9w/m2
02/22/2012 0.12" 0.00" 0.02" -0.02" 48.4° 33.9° 40.6° 60.4% 19.0 MPH 263.3w/m2
02/23/2012 0.08" 0.00" 0.03" -0.02" 35.5° 18.6° 25.3° 58.5% 13.5 MPH 258.2w/m2
02/24/2012 0.12" 0.00" 0.00" 0.00" 44.3° 18.2° 27.8° 49.3% 6.3 MPH 297.0w/m2
02/25/2012 0.08" 0.00" 0.00" 0.00" 45.9° 14.2° 23.7° 60.9% 11.0 MPH 230.4w/m2
02/26/2012 0.09" 0.00" 0.00" 0.00" 35.3° 13.2° 21.3° 46.2% 9.1 MPH 295.3w/m2
02/27/2012 0.08" 0.00" 0.00" 0.00" 40.0° 12.6° 25.8° 54.7% 5.1 MPH 226.7w/m2
02/28/2012 0.07" 0.00" 0.00" 0.00" 37.5° 17.3° 26.9° 68.3% 9.6 MPH 220.2w/m2
02/29/2012 0.04" 0.00" 0.01" -0.01" 34.1° 16.7° 25.6° 76.3% 5.0 MPH 107.5w/m2
Totals: 2.18" 0.00" 0.34" -0.27" 48.4° 8.9° 26.6° 62.9% 8.2 MPH 210.0w/m2